Bradford County (N27)
Towanda, PA
Field Elevation: 730
Lat: 41°44.40N  Long: 76°26.83W
CTAF/Unicom Freq: 123.0000
   
     For Weather-by-Phone, call (570) 265-1024
Weather Advisories
2019-10-14   18:10 Z
Altimeter 29.94" Hg
Wind 250° @ 15 KT
Gusts 28 KT
Visibility 10 SM
Ceiling CLR
Temperature 18° C (64° F)
Dewpoint 1° C (34° F)
Relative Humidity 31%
Density Altitude --
Condensation Altitude 9,300 feet
Wind and Runways
Indicated Runway = 23
Headwind = 14 kt
Crosswind = 5 kt
History
 
 
 
More Info
All DigiWx sites map
NOAA Forecast
 
Airport IQ 5010
(LHV) Lock Haven
(PS81) Robert Packer Hospital
 
about DigiWx
 
FAA Disclaimer: The data displayed is for advisory purposes only and is not to be used for flight planning or operations. For official data, please call (570) 265-1024 to hear the current automated AWOS voice message.
  METAR N27 141810Z AUTO 25015G28KT 10 SM CLR 18/01 A2994